createdAt,value
2022-08-05T00:00:55.286Z,18.82
2022-08-05T00:03:27.948Z,18.70
2022-08-05T00:06:05.770Z,18.69
2022-08-05T00:08:50.378Z,18.54
2022-08-05T00:11:20.498Z,18.53
2022-08-05T00:13:57.643Z,18.51
2022-08-05T00:16:35.548Z,18.45
2022-08-05T00:19:04.263Z,18.46
2022-08-05T00:21:30.934Z,18.38
2022-08-05T00:24:10.100Z,18.31
2022-08-05T00:26:38.397Z,18.24
2022-08-05T00:29:05.153Z,18.15
2022-08-05T00:31:53.806Z,18.11
2022-08-05T00:34:55.925Z,18.20
2022-08-05T00:37:10.691Z,18.14
2022-08-05T00:39:57.341Z,18.07
2022-08-05T00:42:34.202Z,18.10
2022-08-05T00:45:05.214Z,18.09
2022-08-05T00:47:56.380Z,18.25
2022-08-05T00:50:22.516Z,18.10
2022-08-05T00:53:01.508Z,18.08
2022-08-05T00:55:42.376Z,18.00
2022-08-05T00:58:11.683Z,18.04
2022-08-05T01:00:38.811Z,17.98
2022-08-05T01:03:22.278Z,17.98
2022-08-05T01:05:54.586Z,18.01
2022-08-05T01:08:41.080Z,17.97
2022-08-05T01:11:11.254Z,17.85
2022-08-05T01:14:08.443Z,17.84
2022-08-05T01:16:58.926Z,17.72
2022-08-05T01:20:02.306Z,17.79
2022-08-05T01:22:57.646Z,17.72
2022-08-05T01:25:41.664Z,17.69
2022-08-05T01:28:17.704Z,17.55
2022-08-05T01:31:13.466Z,17.45
2022-08-05T01:33:49.165Z,17.39
2022-08-05T01:36:28.058Z,17.37
2022-08-05T01:39:00.377Z,17.33
2022-08-05T01:41:33.718Z,17.40
2022-08-05T01:44:01.704Z,17.38
2022-08-05T01:46:42.099Z,17.24
2022-08-05T01:49:23.742Z,17.18
2022-08-05T01:51:55.718Z,17.21
2022-08-05T01:54:27.203Z,17.20
2022-08-05T01:58:13.784Z,17.20
2022-08-05T01:59:47.127Z,17.10
2022-08-05T02:02:14.321Z,17.12
2022-08-05T02:04:43.251Z,17.09
2022-08-05T02:07:21.839Z,17.08
2022-08-05T02:09:49.775Z,17.05
2022-08-05T02:12:23.660Z,17.06
2022-08-05T02:15:07.701Z,17.08
2022-08-05T02:18:31.053Z,17.10
2022-08-05T02:20:33.542Z,17.07
2022-08-05T02:23:09.209Z,17.08
2022-08-05T02:25:50.212Z,17.07
2022-08-05T02:28:28.438Z,16.97
2022-08-05T02:31:00.836Z,16.96
2022-08-05T02:33:35.972Z,16.97
2022-08-05T02:36:09.666Z,16.97
2022-08-05T02:38:41.860Z,16.97
2022-08-05T02:41:17.256Z,16.98
2022-08-05T02:44:02.680Z,16.98
2022-08-05T02:46:35.339Z,16.99
2022-08-05T02:49:02.941Z,17.05
2022-08-05T02:52:02.998Z,17.06
2022-08-05T02:54:36.300Z,17.02
2022-08-05T02:57:10.145Z,17.09
2022-08-05T02:59:54.267Z,17.04
2022-08-05T03:02:27.605Z,16.98
2022-08-05T03:04:55.633Z,16.99
2022-08-05T03:08:00.331Z,16.93
2022-08-05T03:10:10.750Z,16.93
2022-08-05T03:12:40.115Z,16.92
2022-08-05T03:15:09.729Z,16.86
2022-08-05T03:17:41.764Z,16.83
2022-08-05T03:20:11.864Z,16.85
2022-08-05T03:22:46.804Z,16.78
2022-08-05T03:26:03.469Z,16.78
2022-08-05T03:28:08.642Z,16.72
2022-08-05T03:30:36.139Z,16.67
2022-08-05T03:33:07.261Z,16.68
2022-08-05T03:35:40.961Z,16.63
2022-08-05T03:38:10.882Z,16.61
2022-08-05T03:40:45.127Z,16.65
2022-08-05T03:43:58.760Z,16.63
2022-08-05T03:46:04.175Z,16.63
2022-08-05T03:48:35.645Z,16.67
2022-08-05T03:52:37.066Z,16.72
2022-08-05T03:56:00.847Z,16.68
2022-08-05T03:56:50.645Z,16.67
2022-08-05T03:59:47.133Z,16.69
2022-08-05T04:02:17.591Z,16.69
2022-08-05T04:05:02.769Z,16.79
2022-08-05T04:07:29.959Z,16.67
2022-08-05T04:10:03.060Z,16.72
2022-08-05T04:12:30.003Z,16.74
2022-08-05T04:14:59.384Z,16.74
2022-08-05T04:17:36.467Z,16.71
2022-08-05T04:20:23.663Z,16.69
2022-08-05T04:22:50.480Z,16.66
2022-08-05T04:25:17.296Z,16.67
2022-08-05T04:27:58.209Z,16.65
2022-08-05T04:30:26.692Z,16.64
2022-08-05T04:32:53.428Z,16.61
2022-08-05T04:35:20.178Z,16.58
2022-08-05T04:38:02.996Z,16.59
2022-08-05T04:40:37.871Z,16.68
2022-08-05T04:43:11.197Z,16.68
2022-08-05T04:45:49.082Z,16.61
2022-08-05T04:48:27.513Z,16.63
2022-08-05T04:51:03.021Z,16.69
2022-08-05T04:53:38.884Z,16.61
2022-08-05T04:56:33.627Z,16.56
2022-08-05T04:58:55.979Z,16.63
2022-08-05T05:02:05.740Z,16.63
2022-08-05T05:04:10.080Z,16.61
2022-08-05T05:06:44.508Z,16.67
2022-08-05T05:09:14.083Z,16.67
2022-08-05T05:11:55.719Z,16.73
2022-08-05T05:14:27.855Z,16.59
2022-08-05T05:17:01.366Z,16.57
2022-08-05T05:19:37.301Z,16.55
2022-08-05T05:22:22.771Z,16.52
2022-08-05T05:24:57.131Z,16.52
2022-08-05T05:27:25.252Z,16.46
2022-08-05T05:30:10.024Z,16.42
2022-08-05T05:32:55.896Z,16.41
2022-08-05T05:35:24.384Z,16.37
2022-08-05T05:38:00.001Z,16.37
2022-08-05T05:40:28.701Z,16.39
2022-08-05T05:42:59.576Z,16.39
2022-08-05T05:45:26.529Z,16.41
2022-08-05T05:48:06.868Z,16.48
2022-08-05T05:50:43.840Z,16.52
2022-08-05T05:53:20.838Z,16.53
2022-08-05T05:55:51.507Z,16.47
2022-08-05T05:58:31.866Z,16.45
2022-08-05T06:01:12.228Z,16.35
2022-08-05T06:04:01.305Z,16.38
2022-08-05T06:06:31.123Z,16.31
2022-08-05T06:09:00.117Z,16.25
2022-08-05T06:11:29.066Z,16.30
2022-08-05T06:13:56.445Z,16.34
2022-08-05T06:16:36.755Z,16.41
2022-08-05T06:19:32.940Z,16.37
2022-08-05T06:21:52.314Z,16.43
2022-08-05T06:24:25.865Z,16.43
2022-08-05T06:26:54.052Z,16.36
2022-08-05T06:29:51.958Z,16.31
2022-08-05T06:32:20.886Z,16.26
2022-08-05T06:34:53.413Z,16.16
2022-08-05T06:37:56.059Z,16.14
2022-08-05T06:40:10.712Z,16.13
2022-08-05T06:42:39.946Z,16.02
2022-08-05T06:45:08.780Z,16.06
2022-08-05T06:48:36.869Z,16.14
2022-08-05T06:50:22.992Z,16.27
2022-08-05T06:52:58.572Z,16.31
2022-08-05T06:55:30.383Z,16.39
2022-08-05T06:58:29.928Z,16.49
2022-08-05T07:00:53.552Z,16.54
2022-08-05T07:03:32.325Z,16.63
2022-08-05T07:06:06.114Z,16.64
2022-08-05T07:08:43.047Z,16.66
2022-08-05T07:11:15.950Z,16.82
2022-08-05T07:14:01.918Z,16.94
2022-08-05T07:17:59.723Z,17.08
2022-08-05T07:22:27.748Z,17.04
2022-08-05T07:25:23.300Z,17.04
2022-08-05T07:27:58.742Z,17.16
2022-08-05T07:30:33.936Z,17.27
2022-08-05T07:33:09.530Z,17.29
2022-08-05T07:36:03.871Z,17.44
2022-08-05T07:38:34.126Z,17.54
2022-08-05T07:42:08.031Z,17.65
2022-08-05T07:44:04.458Z,17.73
2022-08-05T07:46:31.873Z,17.84
2022-08-05T07:49:05.544Z,17.75
2022-08-05T07:51:36.645Z,17.59
2022-08-05T07:54:05.188Z,17.60
2022-08-05T07:57:00.837Z,17.54
2022-08-05T07:59:21.977Z,17.58
2022-08-05T08:01:58.036Z,17.49
2022-08-05T08:04:38.166Z,17.52
2022-08-05T08:07:09.735Z,17.57
2022-08-05T08:09:37.447Z,17.65
2022-08-05T08:12:12.535Z,17.52
2022-08-05T08:14:46.639Z,17.60
2022-08-05T08:17:15.850Z,17.50
2022-08-05T08:20:44.573Z,17.38
2022-08-05T08:22:40.175Z,17.41
2022-08-05T08:25:16.145Z,17.55
2022-08-05T08:27:47.425Z,17.70
2022-08-05T08:30:27.617Z,17.68
2022-08-05T08:33:02.623Z,17.72
2022-08-05T08:35:40.923Z,17.66
2022-08-05T08:38:11.858Z,17.72
2022-08-05T08:40:50.536Z,17.76
2022-08-05T08:44:55.737Z,17.67
2022-08-05T08:46:06.329Z,17.81
2022-08-05T08:49:03.067Z,17.83
2022-08-05T08:52:03.098Z,17.66
2022-08-05T08:54:11.633Z,17.57
2022-08-05T08:56:47.578Z,17.48
2022-08-05T08:59:19.743Z,17.81
2022-08-05T09:01:57.621Z,17.74
2022-08-05T09:04:30.714Z,17.84
2022-08-05T09:07:00.485Z,17.84
2022-08-05T09:09:34.746Z,17.99
2022-08-05T09:12:20.290Z,18.20
2022-08-05T09:14:56.990Z,18.08
2022-08-05T09:17:40.989Z,18.19
2022-08-05T09:20:11.092Z,18.19
2022-08-05T09:23:19.000Z,18.13
2022-08-05T09:26:03.234Z,18.07
2022-08-05T09:28:34.511Z,17.86
2022-08-05T09:32:39.306Z,17.62
2022-08-05T09:34:01.299Z,17.37
2022-08-05T09:36:55.209Z,17.27
2022-08-05T09:39:39.221Z,17.07
2022-08-05T09:42:20.172Z,16.84
2022-08-05T09:44:56.098Z,16.62
2022-08-05T09:47:28.646Z,16.52
2022-08-05T09:50:13.241Z,16.55
2022-08-05T09:52:48.321Z,16.67
2022-08-05T09:55:56.562Z,16.65
2022-08-05T09:58:14.324Z,16.35
2022-08-05T10:00:56.242Z,16.47
2022-08-05T10:03:25.627Z,16.56
2022-08-05T10:06:15.645Z,16.72
2022-08-05T10:08:53.976Z,16.83
2022-08-05T10:11:22.795Z,16.96
2022-08-05T10:13:49.678Z,17.00
2022-08-05T10:16:41.963Z,17.02
2022-08-05T10:19:23.473Z,17.06
2022-08-05T10:21:58.592Z,17.09
2022-08-05T10:24:27.145Z,16.95
2022-08-05T10:27:00.423Z,16.98
2022-08-05T10:30:06.706Z,16.89
2022-08-05T10:32:54.588Z,16.76
2022-08-05T10:35:03.946Z,16.87
2022-08-05T10:37:44.982Z,16.76
2022-08-05T10:40:34.500Z,17.02
2022-08-05T10:43:31.098Z,17.17
2022-08-05T10:46:06.973Z,17.43
2022-08-05T10:48:56.535Z,17.67
2022-08-05T10:51:28.969Z,17.82
2022-08-05T10:54:05.659Z,17.70
2022-08-05T10:56:49.589Z,17.75
2022-08-05T11:00:03.390Z,17.69
2022-08-05T11:02:37.637Z,17.57
2022-08-05T11:05:05.381Z,17.26
2022-08-05T11:08:04.605Z,17.14
2022-08-05T11:10:27.241Z,17.05
2022-08-05T11:12:55.919Z,16.96
2022-08-05T11:15:24.437Z,16.79
2022-08-05T11:18:29.813Z,16.90
2022-08-05T11:20:59.644Z,17.07
2022-08-05T11:23:33.538Z,17.15
2022-08-05T11:26:28.858Z,17.52
2022-08-05T11:29:11.817Z,17.70
2022-08-05T11:31:54.542Z,17.35
2022-08-05T11:34:52.164Z,17.25
2022-08-05T11:38:37.003Z,17.03
2022-08-05T11:41:12.876Z,17.11
2022-08-05T11:44:08.100Z,17.25
2022-08-05T11:46:58.620Z,17.56
2022-08-05T11:49:34.356Z,17.86
2022-08-05T11:52:01.924Z,18.13
2022-08-05T11:54:40.416Z,18.24
2022-08-05T11:57:24.724Z,18.55
2022-08-05T11:59:55.485Z,18.56
2022-08-05T12:02:30.421Z,18.72
2022-08-05T12:05:00.793Z,18.41
2022-08-05T12:08:08.894Z,18.24
2022-08-05T12:10:43.221Z,18.54
2022-08-05T12:13:15.482Z,18.50
2022-08-05T12:15:45.013Z,18.04
2022-08-05T12:18:17.725Z,18.06
2022-08-05T12:20:47.492Z,18.25
2022-08-05T12:23:14.514Z,18.44
2022-08-05T12:25:56.618Z,18.26
2022-08-05T12:28:34.293Z,18.50
2022-08-05T12:31:01.917Z,18.55
2022-08-05T12:33:36.749Z,18.77
2022-08-05T12:36:09.261Z,18.84
2022-08-05T12:38:41.110Z,18.75
2022-08-05T12:41:16.213Z,19.00
2022-08-05T12:43:54.584Z,19.18
2022-08-05T12:46:31.863Z,19.03
2022-08-05T12:49:13.617Z,18.92
2022-08-05T12:52:12.471Z,19.16
2022-08-05T12:54:37.196Z,19.37
2022-08-05T12:57:09.543Z,19.77
2022-08-05T13:01:56.813Z,19.70
2022-08-05T13:02:40.865Z,19.75
2022-08-05T13:05:11.087Z,19.87
2022-08-05T13:08:00.551Z,19.67
2022-08-05T13:10:28.655Z,20.05
2022-08-05T13:12:58.044Z,20.22
2022-08-05T13:15:41.957Z,19.86
2022-08-05T13:18:21.083Z,19.93
2022-08-05T13:20:50.691Z,19.93
2022-08-05T13:23:18.088Z,19.65
2022-08-05T13:25:58.985Z,19.83
2022-08-05T13:28:28.262Z,19.77
2022-08-05T13:30:55.548Z,19.95
2022-08-05T13:34:22.074Z,20.30
2022-08-05T13:36:14.416Z,20.49
2022-08-05T13:38:42.754Z,20.57
2022-08-05T13:41:11.355Z,20.43
2022-08-05T13:43:44.496Z,20.80
2022-08-05T13:46:13.653Z,20.61
2022-08-05T13:48:57.193Z,20.00
2022-08-05T13:51:40.034Z,20.05
2022-08-05T13:54:11.688Z,20.50
2022-08-05T13:56:44.958Z,20.42
2022-08-05T13:59:20.206Z,20.25
2022-08-05T14:01:58.262Z,20.41
2022-08-05T14:04:56.272Z,20.27
2022-08-05T14:07:59.775Z,19.80
2022-08-05T14:10:28.582Z,19.61
2022-08-05T14:12:58.329Z,19.79
2022-08-05T14:16:06.038Z,19.65
2022-08-05T14:18:23.360Z,19.41
2022-08-05T14:20:55.080Z,19.18
2022-08-05T14:23:25.489Z,19.55
2022-08-05T14:25:58.578Z,19.54
2022-08-05T14:28:35.068Z,19.66
2022-08-05T14:31:02.195Z,19.56
2022-08-05T14:33:32.671Z,20.14
2022-08-05T14:36:20.497Z,20.10
2022-08-05T14:38:49.158Z,20.20
2022-08-05T14:41:17.806Z,20.15
2022-08-05T14:44:01.832Z,20.24
2022-08-05T14:46:35.018Z,20.50
2022-08-05T14:49:06.533Z,20.29
2022-08-05T14:51:35.765Z,20.10
2022-08-05T14:54:06.912Z,19.84
2022-08-05T14:56:49.106Z,19.89
2022-08-05T14:59:18.359Z,19.75
2022-08-05T15:01:49.579Z,19.80
2022-08-05T15:04:20.518Z,19.96
2022-08-05T15:06:49.366Z,20.04
2022-08-05T15:09:51.305Z,20.01
2022-08-05T15:12:05.621Z,20.16
2022-08-05T15:14:34.789Z,20.25
2022-08-05T15:17:09.850Z,20.53
2022-08-05T15:19:55.825Z,20.50
2022-08-05T15:22:27.358Z,20.29
2022-08-05T15:24:56.130Z,20.38
2022-08-05T15:27:25.721Z,20.55
2022-08-05T15:29:56.680Z,20.28
2022-08-05T15:32:28.847Z,19.90
2022-08-05T15:34:56.904Z,20.00
2022-08-05T15:38:33.345Z,19.91
2022-08-05T15:41:02.190Z,19.81
2022-08-05T15:43:20.528Z,19.65
2022-08-05T15:46:00.583Z,19.61
2022-08-05T15:48:28.376Z,19.70
2022-08-05T15:50:55.209Z,19.37
2022-08-05T15:53:26.553Z,19.18
2022-08-05T15:56:11.656Z,18.98
2022-08-05T15:58:41.006Z,19.11
2022-08-05T16:01:16.388Z,19.29
2022-08-05T16:03:48.306Z,19.58
2022-08-05T16:06:20.367Z,19.95
2022-08-05T16:08:51.259Z,20.04
2022-08-05T16:11:40.117Z,20.42
2022-08-05T16:14:17.375Z,20.91
2022-08-05T16:16:45.356Z,21.37
2022-08-05T16:19:18.896Z,21.34
2022-08-05T16:22:03.029Z,21.39
2022-08-05T16:24:41.855Z,20.96
2022-08-05T16:27:47.062Z,20.80
2022-08-05T16:30:26.460Z,21.02
2022-08-05T16:32:55.656Z,20.81
2022-08-05T16:35:28.599Z,20.90
2022-08-05T16:38:24.372Z,20.76
2022-08-05T16:42:24.151Z,20.73
2022-08-05T16:43:56.626Z,20.65
2022-08-05T16:46:29.752Z,20.47
2022-08-05T16:49:03.186Z,20.28
2022-08-05T16:51:42.937Z,20.19
2022-08-05T16:54:28.627Z,20.41
2022-08-05T16:57:04.680Z,20.05
2022-08-05T17:00:01.776Z,20.23
2022-08-05T17:02:54.396Z,20.04
2022-08-05T17:05:23.672Z,20.02
2022-08-05T17:07:53.086Z,19.98
2022-08-05T17:10:31.243Z,19.81
2022-08-05T17:12:58.379Z,19.80
2022-08-05T17:15:29.526Z,19.85
2022-08-05T17:18:14.338Z,19.79
2022-08-05T17:20:44.799Z,19.60
2022-08-05T17:24:03.396Z,19.58
2022-08-05T17:26:14.932Z,19.49
2022-08-05T17:28:41.995Z,19.28
2022-08-05T17:34:40.950Z,19.43
2022-08-05T17:39:56.027Z,18.99
2022-08-05T17:42:49.630Z,18.89
2022-08-05T17:45:22.993Z,18.64
2022-08-05T17:48:01.790Z,18.57
2022-08-05T17:50:31.314Z,18.51
2022-08-05T17:53:01.998Z,18.48
2022-08-05T17:55:37.879Z,18.45
2022-08-05T17:58:32.503Z,18.20
2022-08-05T18:00:59.955Z,18.05
2022-08-05T18:03:58.897Z,17.99
2022-08-05T18:06:15.580Z,17.94
2022-08-05T18:08:45.940Z,17.84
2022-08-05T18:11:23.771Z,17.65
2022-08-05T18:14:04.548Z,17.48
2022-08-05T18:16:35.204Z,17.36
2022-08-05T18:19:34.444Z,17.39
2022-08-05T18:22:07.837Z,17.31
2022-08-05T18:24:39.381Z,17.31
2022-08-05T18:27:18.039Z,17.18
2022-08-05T18:29:53.703Z,17.02
2022-08-05T18:32:28.353Z,16.88
2022-08-05T18:35:16.930Z,16.81
2022-08-05T18:37:43.775Z,16.83
2022-08-05T18:41:50.741Z,16.63
2022-08-05T18:42:58.329Z,16.34
2022-08-05T18:45:40.920Z,16.15
2022-08-05T18:48:30.133Z,16.10
2022-08-05T18:52:04.669Z,15.93
2022-08-05T18:54:13.089Z,15.83
2022-08-05T18:56:51.110Z,15.58
2022-08-05T18:59:43.440Z,15.43
2022-08-05T19:02:11.268Z,15.20
2022-08-05T19:05:02.419Z,15.04
2022-08-05T19:07:46.249Z,14.93
2022-08-05T19:10:14.682Z,14.71
2022-08-05T19:12:46.169Z,14.62
2022-08-05T19:15:57.060Z,14.52
2022-08-05T19:18:09.288Z,14.33
2022-08-05T19:20:41.401Z,14.18
2022-08-05T19:24:03.688Z,14.06
2022-08-05T19:26:01.786Z,13.97
2022-08-05T19:28:30.666Z,13.87
2022-08-05T19:30:58.146Z,13.78
2022-08-05T19:33:35.136Z,13.71
2022-08-05T19:36:06.210Z,13.66
2022-08-05T19:38:35.609Z,13.59
2022-08-05T19:41:11.744Z,13.53
2022-08-05T19:44:05.862Z,13.48
2022-08-05T19:46:30.054Z,13.46
2022-08-05T19:49:03.565Z,13.39
2022-08-05T19:52:08.505Z,13.30
2022-08-05T19:54:30.975Z,13.21
2022-08-05T19:57:06.613Z,13.12
2022-08-05T19:59:55.205Z,13.03
2022-08-05T20:02:26.165Z,13.02
2022-08-05T20:04:53.971Z,13.01
2022-08-05T20:07:47.276Z,13.02
2022-08-05T20:10:11.755Z,12.93
2022-08-05T20:12:46.098Z,12.91
2022-08-05T20:15:48.468Z,12.84
2022-08-05T20:18:10.906Z,12.86
2022-08-05T20:20:51.202Z,12.81
2022-08-05T20:23:22.366Z,12.77
2022-08-05T20:26:01.516Z,12.73
2022-08-05T20:28:28.153Z,12.68
2022-08-05T20:30:54.901Z,12.68
2022-08-05T20:33:21.848Z,12.73
2022-08-05T20:35:48.695Z,12.65
2022-08-05T20:38:22.729Z,12.64
2022-08-05T20:40:56.931Z,12.54
2022-08-05T20:43:57.642Z,12.59
2022-08-05T20:46:18.529Z,12.65
2022-08-05T20:48:51.909Z,12.66
2022-08-05T20:51:18.657Z,12.66
2022-08-05T20:53:56.727Z,12.69
2022-08-05T20:56:28.892Z,12.80
2022-08-05T20:59:19.357Z,12.89
2022-08-05T21:01:52.049Z,12.90
2022-08-05T21:04:19.478Z,12.92
2022-08-05T21:06:46.535Z,13.01
2022-08-05T21:09:15.676Z,13.05
2022-08-05T21:12:10.093Z,13.05
2022-08-05T21:14:35.136Z,13.18
2022-08-05T21:17:07.463Z,13.21
2022-08-05T21:19:46.881Z,13.21
2022-08-05T21:22:18.572Z,13.26
2022-08-05T21:24:54.976Z,13.11
2022-08-05T21:27:25.283Z,12.96
2022-08-05T21:29:55.802Z,12.90
2022-08-05T21:32:26.984Z,12.82
2022-08-05T21:35:08.589Z,12.72
2022-08-05T21:37:47.141Z,12.61
2022-08-05T21:40:22.343Z,12.56
2022-08-05T21:42:51.874Z,12.61
2022-08-05T21:45:24.120Z,12.88
2022-08-05T21:47:57.738Z,12.90
2022-08-05T21:50:26.032Z,12.90
2022-08-05T21:52:53.442Z,12.80
2022-08-05T21:55:42.794Z,12.64
2022-08-05T21:58:11.682Z,12.66
2022-08-05T22:00:40.460Z,12.52
2022-08-05T22:03:09.960Z,12.61
2022-08-05T22:05:48.539Z,12.66
2022-08-05T22:08:24.108Z,12.79
2022-08-05T22:10:54.576Z,12.78
2022-08-05T22:14:06.050Z,12.81
2022-08-05T22:16:32.247Z,12.70
2022-08-05T22:18:58.650Z,12.71
2022-08-05T22:21:28.999Z,12.69
2022-08-05T22:24:39.794Z,12.77
2022-08-05T22:27:21.820Z,12.58
2022-08-05T22:29:54.094Z,12.61
2022-08-05T22:32:23.076Z,12.51
2022-08-05T22:34:51.355Z,12.32
2022-08-05T22:37:18.722Z,12.15
2022-08-05T22:39:50.297Z,12.03
2022-08-05T22:42:25.536Z,12.00
2022-08-05T22:46:12.159Z,12.09
2022-08-05T22:48:09.489Z,12.09
2022-08-05T22:50:55.970Z,12.04
2022-08-05T22:53:55.150Z,11.93
2022-08-05T22:56:32.753Z,11.82
2022-08-05T22:59:43.833Z,11.80
2022-08-05T23:05:21.991Z,11.61
2022-08-05T23:08:02.776Z,11.51
2022-08-05T23:11:35.734Z,11.46
2022-08-05T23:13:53.129Z,11.38
2022-08-05T23:19:32.258Z,11.34
2022-08-05T23:22:32.024Z,11.46
2022-08-05T23:25:00.217Z,11.60
2022-08-05T23:27:58.072Z,11.74
2022-08-05T23:30:52.793Z,11.64
2022-08-05T23:34:05.408Z,11.80
2022-08-05T23:36:54.932Z,11.72
2022-08-05T23:42:53.698Z,11.90
2022-08-05T23:45:54.461Z,11.96
2022-08-05T23:48:37.948Z,12.14
2022-08-05T23:54:11.820Z,11.98
2022-08-05T23:57:10.308Z,12.02
